createdAt,value
2023-03-25T00:00:16.825Z,10.55
2023-03-25T00:02:49.362Z,10.51
2023-03-25T00:05:18.364Z,10.46
2023-03-25T00:07:48.296Z,10.46
2023-03-25T00:10:15.514Z,10.44
2023-03-25T00:12:42.768Z,10.47
2023-03-25T00:15:12.021Z,10.39
2023-03-25T00:17:39.344Z,10.37
2023-03-25T00:20:09.376Z,10.37
2023-03-25T00:22:41.334Z,10.37
2023-03-25T00:25:17.157Z,10.30
2023-03-25T00:27:59.740Z,10.26
2023-03-25T00:30:26.496Z,10.31
2023-03-25T00:32:53.382Z,10.19
2023-03-25T00:35:20.857Z,10.24
2023-03-25T00:37:59.970Z,10.15
2023-03-25T00:40:28.658Z,10.21
2023-03-25T00:42:56.408Z,10.21
2023-03-25T00:45:23.728Z,10.24
2023-03-25T00:47:50.546Z,10.20
2023-03-25T00:50:17.293Z,10.26
2023-03-25T00:52:43.860Z,10.31
2023-03-25T00:55:10.469Z,10.25
2023-03-25T00:57:37.499Z,10.22
2023-03-25T01:00:11.231Z,10.26
2023-03-25T01:02:39.513Z,10.24
2023-03-25T01:05:07.156Z,10.25
2023-03-25T01:07:34.517Z,10.19
2023-03-25T01:10:01.870Z,10.13
2023-03-25T01:12:28.460Z,10.13
2023-03-25T01:14:55.297Z,10.09
2023-03-25T01:17:22.047Z,10.15
2023-03-25T01:19:48.686Z,10.09
2023-03-25T01:22:15.464Z,10.04
2023-03-25T01:24:42.109Z,9.98
2023-03-25T01:27:08.665Z,10.05
2023-03-25T01:29:35.250Z,10.04
2023-03-25T01:32:01.789Z,10.11
2023-03-25T01:34:28.370Z,10.12
2023-03-25T01:36:55.608Z,10.18
2023-03-25T01:39:22.823Z,10.16
2023-03-25T01:41:51.461Z,10.17
2023-03-25T01:44:21.883Z,10.10
2023-03-25T01:46:53.306Z,10.11
2023-03-25T01:49:30.248Z,10.13
2023-03-25T01:52:03.068Z,10.06
2023-03-25T01:54:29.782Z,10.20
2023-03-25T01:56:56.938Z,10.20
2023-03-25T01:59:27.193Z,10.26
2023-03-25T02:01:56.120Z,10.20
2023-03-25T02:04:42.897Z,10.19
2023-03-25T02:07:10.273Z,10.32
2023-03-25T02:09:38.042Z,10.27
2023-03-25T02:12:04.979Z,10.34
2023-03-25T02:14:37.473Z,10.23
2023-03-25T02:17:34.257Z,10.27
2023-03-25T02:20:15.857Z,10.27
2023-03-25T02:22:49.930Z,10.24
2023-03-25T02:25:35.769Z,10.20
2023-03-25T02:28:13.723Z,10.24
2023-03-25T02:31:04.787Z,10.29
2023-03-25T02:33:34.227Z,10.24
2023-03-25T02:36:18.726Z,10.31
2023-03-25T02:38:52.999Z,10.35
2023-03-25T02:41:31.735Z,10.40
2023-03-25T02:44:47.728Z,10.44
2023-03-25T02:47:18.382Z,10.38
2023-03-25T02:50:07.789Z,10.33
2023-03-25T02:52:43.069Z,10.31
2023-03-25T02:55:12.650Z,10.31
2023-03-25T02:57:44.095Z,10.28
2023-03-25T03:00:15.992Z,10.24
2023-03-25T03:02:50.807Z,10.19
2023-03-25T03:05:40.752Z,10.20
2023-03-25T03:08:26.460Z,10.14
2023-03-25T03:10:55.984Z,10.12
2023-03-25T03:13:43.014Z,10.14
2023-03-25T03:16:32.608Z,10.08
2023-03-25T03:19:05.136Z,10.09
2023-03-25T03:21:57.239Z,10.19
2023-03-25T03:24:42.631Z,10.18
2023-03-25T03:27:12.743Z,10.18
2023-03-25T03:29:46.454Z,10.03
2023-03-25T03:32:19.209Z,10.19
2023-03-25T03:34:52.108Z,10.22
2023-03-25T03:37:29.813Z,10.27
2023-03-25T03:39:57.984Z,10.27
2023-03-25T03:42:50.657Z,10.19
2023-03-25T03:45:30.988Z,10.18
2023-03-25T03:48:00.067Z,10.24
2023-03-25T03:50:31.678Z,10.20
2023-03-25T03:53:12.513Z,10.22
2023-03-25T03:55:43.613Z,10.25
2023-03-25T03:58:16.238Z,10.17
2023-03-25T04:00:49.882Z,10.18
2023-03-25T04:03:24.978Z,10.22
2023-03-25T04:06:08.248Z,10.19
2023-03-25T04:08:42.837Z,10.12
2023-03-25T04:11:17.054Z,10.16
2023-03-25T04:13:46.799Z,10.13
2023-03-25T04:16:13.387Z,10.10
2023-03-25T04:18:39.922Z,10.02
2023-03-25T04:21:06.935Z,10.07
2023-03-25T04:23:34.758Z,10.08
2023-03-25T04:26:02.984Z,10.14
2023-03-25T04:28:31.751Z,10.14
2023-03-25T04:31:00.620Z,10.13
2023-03-25T04:33:32.073Z,10.03
2023-03-25T04:36:01.943Z,9.95
2023-03-25T04:38:29.488Z,10.14
2023-03-25T04:40:56.295Z,10.07
2023-03-25T04:43:22.813Z,10.10
2023-03-25T04:45:54.422Z,10.15
2023-03-25T04:48:26.078Z,10.19
2023-03-25T04:50:52.732Z,10.14
2023-03-25T04:53:19.269Z,10.20
2023-03-25T04:55:49.407Z,10.25
2023-03-25T04:58:16.302Z,10.24
2023-03-25T05:00:44.929Z,10.26
2023-03-25T05:03:11.816Z,10.18
2023-03-25T05:05:39.294Z,10.15
2023-03-25T05:08:05.809Z,10.18
2023-03-25T05:10:32.433Z,10.18
2023-03-25T05:13:00.964Z,10.16
2023-03-25T05:15:28.467Z,10.17
2023-03-25T05:17:55.296Z,10.17
2023-03-25T05:20:23.006Z,10.14
2023-03-25T05:22:49.504Z,10.16
2023-03-25T05:25:16.040Z,10.18
2023-03-25T05:27:42.694Z,10.20
2023-03-25T05:30:10.426Z,10.20
2023-03-25T05:32:36.977Z,10.27
2023-03-25T05:35:04.298Z,10.28
2023-03-25T05:37:30.943Z,10.27
2023-03-25T05:39:57.931Z,10.24
2023-03-25T05:42:24.814Z,10.12
2023-03-25T05:44:54.400Z,10.16
2023-03-25T05:47:23.734Z,10.16
2023-03-25T05:49:52.070Z,10.15
2023-03-25T05:52:19.681Z,10.11
2023-03-25T05:54:50.630Z,9.77
2023-03-25T05:57:17.642Z,9.69
2023-03-25T05:59:44.452Z,9.65
2023-03-25T06:02:16.238Z,9.66
2023-03-25T06:04:43.836Z,9.72
2023-03-25T06:07:14.015Z,9.75
2023-03-25T06:09:46.693Z,9.68
2023-03-25T06:12:19.918Z,9.60
2023-03-25T06:14:54.119Z,9.55
2023-03-25T06:17:22.495Z,9.52
2023-03-25T06:19:49.820Z,9.44
2023-03-25T06:22:16.750Z,9.38
2023-03-25T06:24:43.482Z,9.33
2023-03-25T06:27:16.432Z,9.31
2023-03-25T06:29:43.804Z,9.26
2023-03-25T06:32:13.140Z,9.23
2023-03-25T06:34:42.519Z,9.21
2023-03-25T06:37:09.756Z,9.26
2023-03-25T06:39:37.798Z,9.23
2023-03-25T06:42:06.080Z,9.27
2023-03-25T06:44:33.807Z,9.32
2023-03-25T06:47:02.426Z,9.37
2023-03-25T06:49:29.303Z,9.41
2023-03-25T06:51:55.799Z,9.49
2023-03-25T06:54:22.879Z,9.55
2023-03-25T06:56:49.731Z,9.63
2023-03-25T06:59:16.357Z,9.67
2023-03-25T07:01:43.227Z,9.71
2023-03-25T07:04:10.193Z,9.79
2023-03-25T07:06:36.858Z,9.88
2023-03-25T07:09:03.902Z,10.01
2023-03-25T07:11:32.213Z,10.01
2023-03-25T07:13:59.315Z,10.01
2023-03-25T07:16:26.621Z,10.01
2023-03-25T07:18:54.961Z,10.06
2023-03-25T07:21:21.608Z,10.24
2023-03-25T07:23:48.290Z,10.34
2023-03-25T07:26:14.938Z,10.48
2023-03-25T07:28:42.298Z,10.65
2023-03-25T07:31:10.490Z,10.65
2023-03-25T07:33:37.976Z,10.62
2023-03-25T07:36:06.961Z,10.76
2023-03-25T07:38:33.939Z,10.76
2023-03-25T07:41:04.325Z,10.87
2023-03-25T07:43:32.930Z,10.80
2023-03-25T07:45:59.807Z,10.75
2023-03-25T07:48:26.581Z,10.56
2023-03-25T07:50:53.139Z,10.48
2023-03-25T07:53:20.019Z,10.46
2023-03-25T07:55:46.727Z,10.21
2023-03-25T07:58:13.403Z,10.19
2023-03-25T08:00:39.915Z,10.21
2023-03-25T08:03:06.668Z,10.39
2023-03-25T08:05:33.368Z,10.30
2023-03-25T08:08:00.987Z,10.29
2023-03-25T08:10:27.919Z,10.47
2023-03-25T08:12:54.595Z,10.21
2023-03-25T08:15:24.617Z,9.99
2023-03-25T08:17:54.235Z,10.14
2023-03-25T08:20:21.175Z,10.06
2023-03-25T08:22:47.920Z,10.04
2023-03-25T08:25:14.666Z,10.25
2023-03-25T08:27:41.474Z,10.37
2023-03-25T08:30:10.698Z,10.32
2023-03-25T08:32:38.537Z,10.23
2023-03-25T08:35:06.329Z,10.00
2023-03-25T08:37:37.763Z,9.67
2023-03-25T08:40:08.902Z,9.25
2023-03-25T08:42:36.760Z,8.79
2023-03-25T08:45:04.759Z,8.71
2023-03-25T08:47:31.291Z,8.65
2023-03-25T08:49:58.044Z,8.79
2023-03-25T08:52:24.899Z,8.75
2023-03-25T08:54:51.540Z,8.73
2023-03-25T08:57:18.081Z,8.70
2023-03-25T08:59:44.657Z,8.61
2023-03-25T09:02:12.764Z,8.56
2023-03-25T09:04:39.374Z,8.52
2023-03-25T09:07:12.672Z,8.60
2023-03-25T09:09:40.622Z,8.60
2023-03-25T09:12:07.963Z,8.67
2023-03-25T09:14:34.740Z,8.76
2023-03-25T09:17:01.243Z,8.68
2023-03-25T09:19:27.847Z,8.73
2023-03-25T09:21:54.525Z,8.64
2023-03-25T09:24:22.762Z,8.52
2023-03-25T09:26:49.669Z,8.45
2023-03-25T09:29:16.819Z,8.30
2023-03-25T09:31:43.461Z,8.27
2023-03-25T09:34:10.159Z,8.21
2023-03-25T09:36:37.174Z,8.09
2023-03-25T09:39:04.108Z,8.20
2023-03-25T09:41:45.695Z,8.39
2023-03-25T09:44:15.036Z,8.59
2023-03-25T09:46:41.572Z,8.96
2023-03-25T09:49:25.107Z,8.74
2023-03-25T09:51:54.577Z,8.84
2023-03-25T09:54:29.884Z,9.06
2023-03-25T09:57:02.640Z,9.33
2023-03-25T09:59:51.654Z,9.41
2023-03-25T10:02:42.988Z,9.57
2023-03-25T10:05:33.835Z,9.53
2023-03-25T10:08:23.279Z,9.58
2023-03-25T10:11:02.595Z,10.09
2023-03-25T10:13:32.222Z,10.18
2023-03-25T10:16:08.404Z,10.39
2023-03-25T10:19:03.569Z,10.33
2023-03-25T10:21:38.574Z,10.39
2023-03-25T10:24:25.699Z,10.40
2023-03-25T10:27:02.593Z,10.67
2023-03-25T10:29:45.142Z,10.32
2023-03-25T10:32:17.458Z,10.52
2023-03-25T10:34:53.900Z,10.79
2023-03-25T10:37:28.817Z,10.96
2023-03-25T10:40:04.114Z,11.26
2023-03-25T10:42:38.772Z,11.40
2023-03-25T10:45:13.436Z,11.24
2023-03-25T10:47:41.607Z,11.24
2023-03-25T10:50:15.821Z,11.38
2023-03-25T10:52:42.880Z,11.95
2023-03-25T10:55:25.849Z,11.87
2023-03-25T10:57:53.918Z,12.18
2023-03-25T11:00:23.196Z,11.83
2023-03-25T11:02:50.714Z,12.15
2023-03-25T11:05:23.238Z,12.41
2023-03-25T11:07:54.126Z,12.03
2023-03-25T11:10:35.168Z,11.93
2023-03-25T11:13:04.639Z,12.54
2023-03-25T11:15:35.185Z,12.41
2023-03-25T11:18:22.510Z,12.44
2023-03-25T11:20:57.045Z,12.12
2023-03-25T11:23:58.295Z,11.98
2023-03-25T11:26:27.369Z,12.10
2023-03-25T11:29:04.327Z,11.81
2023-03-25T11:31:35.978Z,11.21
2023-03-25T11:34:21.571Z,10.59
2023-03-25T11:37:13.198Z,10.40
2023-03-25T11:39:41.279Z,9.82
2023-03-25T11:42:16.859Z,9.82
2023-03-25T11:44:49.776Z,10.17
2023-03-25T11:47:23.383Z,9.98
2023-03-25T11:49:50.264Z,10.22
2023-03-25T11:52:21.938Z,10.43
2023-03-25T11:54:49.594Z,10.65
2023-03-25T11:57:24.508Z,10.78
2023-03-25T12:00:06.514Z,10.96
2023-03-25T12:02:40.703Z,11.17
2023-03-25T12:05:13.374Z,11.24
2023-03-25T12:07:48.628Z,11.30
2023-03-25T12:10:47.587Z,11.43
2023-03-25T12:13:19.853Z,11.39
2023-03-25T12:15:56.364Z,11.73
2023-03-25T12:18:41.920Z,11.92
2023-03-25T12:21:34.645Z,12.03
2023-03-25T12:24:17.352Z,11.73
2023-03-25T12:27:13.351Z,11.80
2023-03-25T12:29:48.716Z,12.06
2023-03-25T12:32:36.707Z,12.13
2023-03-25T12:35:14.316Z,12.08
2023-03-25T12:37:53.039Z,12.26
2023-03-25T12:40:45.022Z,12.24
2023-03-25T12:43:21.120Z,12.17
2023-03-25T12:46:10.803Z,11.98
2023-03-25T12:49:07.880Z,11.36
2023-03-25T12:51:48.212Z,10.15
2023-03-25T12:54:35.597Z,9.60
2023-03-25T12:57:07.863Z,9.65
2023-03-25T13:00:02.033Z,10.07
2023-03-25T13:02:41.508Z,10.56
2023-03-25T13:05:23.192Z,10.91
2023-03-25T13:07:54.787Z,10.78
2023-03-25T13:10:24.939Z,10.87
2023-03-25T13:12:55.434Z,11.13
2023-03-25T13:15:28.213Z,11.35
2023-03-25T13:18:00.193Z,11.56
2023-03-25T13:20:32.076Z,11.68
2023-03-25T13:23:02.268Z,12.24
2023-03-25T13:25:42.967Z,12.17
2023-03-25T13:28:16.117Z,12.64
2023-03-25T13:30:45.925Z,12.74
2023-03-25T13:33:30.423Z,12.58
2023-03-25T13:36:09.614Z,12.90
2023-03-25T13:38:51.197Z,13.00
2023-03-25T13:41:31.230Z,12.94
2023-03-25T13:44:07.781Z,12.87
2023-03-25T13:46:39.784Z,12.97
2023-03-25T13:49:16.936Z,13.33
2023-03-25T13:51:43.676Z,13.33
2023-03-25T13:54:14.049Z,13.75
2023-03-25T13:57:10.009Z,13.68
2023-03-25T13:59:57.810Z,13.84
2023-03-25T14:02:33.215Z,13.84
2023-03-25T14:05:18.707Z,13.90
2023-03-25T14:08:09.742Z,14.20
2023-03-25T14:10:47.877Z,13.74
2023-03-25T14:13:20.006Z,13.70
2023-03-25T14:15:56.702Z,13.85
2023-03-25T14:18:23.631Z,13.65
2023-03-25T14:20:51.405Z,14.01
2023-03-25T14:23:22.583Z,14.36
2023-03-25T14:25:54.795Z,13.84
2023-03-25T14:28:38.906Z,13.79
2023-03-25T14:31:24.414Z,14.45
2023-03-25T14:34:00.115Z,14.61
2023-03-25T14:36:47.388Z,13.84
2023-03-25T14:39:34.135Z,13.01
2023-03-25T14:42:04.335Z,10.67
2023-03-25T14:45:15.614Z,8.17
2023-03-25T14:47:53.421Z,7.55
2023-03-25T14:50:20.664Z,7.34
2023-03-25T14:52:53.294Z,7.30
2023-03-25T14:55:33.006Z,7.38
2023-03-25T14:58:18.199Z,7.39
2023-03-25T15:00:53.871Z,7.43
2023-03-25T15:03:22.640Z,7.46
2023-03-25T15:06:00.270Z,7.49
2023-03-25T15:08:34.197Z,7.55
2023-03-25T15:11:06.427Z,7.78
2023-03-25T15:13:42.265Z,7.98
2023-03-25T15:16:36.354Z,8.32
2023-03-25T15:19:11.396Z,8.90
2023-03-25T15:22:07.714Z,10.69
2023-03-25T15:24:36.637Z,11.69
2023-03-25T15:27:25.967Z,12.55
2023-03-25T15:30:03.157Z,13.37
2023-03-25T15:32:34.143Z,13.30
2023-03-25T15:35:32.225Z,13.11
2023-03-25T15:38:16.605Z,13.41
2023-03-25T15:40:55.491Z,12.95
2023-03-25T15:43:59.509Z,12.67
2023-03-25T15:46:45.444Z,12.45
2023-03-25T15:49:37.171Z,11.88
2023-03-25T15:52:03.959Z,12.28
2023-03-25T15:54:53.164Z,12.69
2023-03-25T15:57:42.837Z,12.65
2023-03-25T16:00:29.639Z,11.57
2023-03-25T16:03:02.243Z,10.98
2023-03-25T16:05:31.492Z,10.98
2023-03-25T16:08:01.201Z,11.53
2023-03-25T16:10:31.020Z,11.62
2023-03-25T16:12:57.625Z,12.14
2023-03-25T16:15:30.284Z,11.85
2023-03-25T16:18:01.817Z,11.99
2023-03-25T16:20:32.033Z,11.71
2023-03-25T16:22:59.966Z,11.52
2023-03-25T16:25:39.202Z,11.65
2023-03-25T16:28:14.298Z,12.07
2023-03-25T16:30:43.202Z,12.17
2023-03-25T16:33:13.954Z,11.84
2023-03-25T16:35:43.979Z,11.62
2023-03-25T16:38:17.736Z,11.38
2023-03-25T16:40:46.852Z,11.43
2023-03-25T16:43:13.661Z,11.23
2023-03-25T16:45:40.923Z,10.87
2023-03-25T16:48:23.849Z,10.44
2023-03-25T16:50:54.458Z,10.25
2023-03-25T16:53:22.592Z,10.50
2023-03-25T16:56:09.437Z,10.54
2023-03-25T16:58:47.964Z,10.34
2023-03-25T17:01:15.995Z,10.27
2023-03-25T17:03:46.364Z,10.25
2023-03-25T17:06:29.332Z,10.06
2023-03-25T17:08:58.808Z,9.88
2023-03-25T17:11:29.064Z,9.74
2023-03-25T17:14:02.538Z,9.70
2023-03-25T17:16:32.966Z,9.51
2023-03-25T17:19:01.337Z,9.47
2023-03-25T17:21:31.120Z,9.40
2023-03-25T17:24:06.580Z,9.21
2023-03-25T17:26:53.237Z,9.27
2023-03-25T17:29:20.299Z,9.25
2023-03-25T17:31:55.406Z,9.27
2023-03-25T17:34:24.117Z,9.29
2023-03-25T17:36:58.513Z,9.21
2023-03-25T17:39:29.061Z,9.13
2023-03-25T17:42:02.971Z,8.98
2023-03-25T17:44:37.374Z,8.99
2023-03-25T17:47:05.530Z,9.04
2023-03-25T17:49:32.403Z,8.94
2023-03-25T17:51:58.960Z,8.86
2023-03-25T17:54:26.023Z,8.92
2023-03-25T17:56:53.098Z,8.87
2023-03-25T17:59:22.267Z,8.88
2023-03-25T18:01:50.070Z,8.83
2023-03-25T18:04:18.167Z,8.92
2023-03-25T18:06:44.882Z,8.78
2023-03-25T18:09:16.999Z,8.85
2023-03-25T18:11:48.483Z,8.82
2023-03-25T18:14:15.362Z,8.87
2023-03-25T18:16:42.072Z,8.89
2023-03-25T18:19:18.103Z,8.80
2023-03-25T18:21:45.551Z,8.84
2023-03-25T18:24:13.524Z,8.83
2023-03-25T18:26:43.997Z,8.91
2023-03-25T18:29:18.575Z,8.94
2023-03-25T18:31:45.446Z,9.05
2023-03-25T18:34:13.113Z,9.08
2023-03-25T18:36:40.611Z,9.10
2023-03-25T18:39:12.768Z,9.16
2023-03-25T18:41:39.445Z,9.19
2023-03-25T18:44:06.111Z,9.23
2023-03-25T18:46:32.656Z,9.31
2023-03-25T18:49:02.551Z,9.31
2023-03-25T18:51:31.239Z,9.34
2023-03-25T18:53:58.072Z,9.35
2023-03-25T18:56:25.422Z,9.35
2023-03-25T18:58:52.941Z,9.31
2023-03-25T19:01:21.677Z,9.40
2023-03-25T19:03:50.511Z,9.34
2023-03-25T19:06:18.771Z,9.30
2023-03-25T19:08:47.445Z,9.17
2023-03-25T19:11:21.210Z,9.07
2023-03-25T19:13:49.428Z,9.04
2023-03-25T19:16:16.076Z,9.02
2023-03-25T19:18:42.789Z,9.00
2023-03-25T19:21:10.537Z,9.07
2023-03-25T19:23:37.640Z,9.04
2023-03-25T19:26:04.395Z,9.05
2023-03-25T19:28:31.084Z,9.06
2023-03-25T19:31:00.433Z,9.11
2023-03-25T19:33:30.864Z,9.16
2023-03-25T19:35:59.707Z,9.25
2023-03-25T19:38:26.332Z,9.36
2023-03-25T19:41:09.169Z,9.40
2023-03-25T19:43:36.188Z,9.45
2023-03-25T19:46:03.809Z,9.61
2023-03-25T19:48:30.570Z,9.65
2023-03-25T19:50:57.868Z,9.67
2023-03-25T19:53:26.118Z,9.62
2023-03-25T19:55:53.438Z,9.49
2023-03-25T19:58:22.730Z,9.42
2023-03-25T20:00:49.577Z,9.17
2023-03-25T20:03:16.672Z,8.77
2023-03-25T20:05:43.648Z,8.37
2023-03-25T20:08:11.718Z,8.31
2023-03-25T20:10:39.246Z,8.57
2023-03-25T20:13:06.173Z,8.68
2023-03-25T20:15:33.359Z,8.60
2023-03-25T20:18:00.244Z,8.52
2023-03-25T20:20:26.964Z,8.45
2023-03-25T20:22:53.563Z,8.40
2023-03-25T20:25:20.436Z,8.34
2023-03-25T20:27:47.321Z,8.12
2023-03-25T20:30:17.463Z,8.19
2023-03-25T20:32:46.584Z,8.21
2023-03-25T20:35:16.290Z,8.04
2023-03-25T20:37:44.673Z,8.21
2023-03-25T20:40:15.458Z,8.18
2023-03-25T20:42:44.412Z,8.20
2023-03-25T20:45:13.943Z,8.11
2023-03-25T20:47:41.627Z,8.12
2023-03-25T20:50:09.813Z,8.14
2023-03-25T20:52:38.098Z,8.06
2023-03-25T20:55:05.992Z,7.97
2023-03-25T20:57:33.329Z,7.93
2023-03-25T20:59:59.925Z,7.84
2023-03-25T21:02:27.147Z,7.82
2023-03-25T21:04:56.856Z,7.83
2023-03-25T21:07:27.755Z,7.92
2023-03-25T21:09:55.075Z,7.86
2023-03-25T21:12:27.158Z,7.92
2023-03-25T21:14:59.912Z,7.84
2023-03-25T21:17:27.870Z,7.79
2023-03-25T21:19:54.902Z,7.86
2023-03-25T21:22:21.970Z,7.87
2023-03-25T21:24:48.518Z,7.76
2023-03-25T21:27:17.433Z,7.73
2023-03-25T21:29:44.245Z,7.78
2023-03-25T21:32:11.096Z,7.80
2023-03-25T21:34:40.587Z,7.81
2023-03-25T21:37:07.059Z,7.86
2023-03-25T21:39:33.697Z,7.88
2023-03-25T21:42:00.504Z,8.03
2023-03-25T21:44:37.373Z,8.23
2023-03-25T21:47:08.613Z,8.35
2023-03-25T21:49:35.420Z,8.29
2023-03-25T21:52:02.116Z,8.39
2023-03-25T21:54:30.464Z,8.31
2023-03-25T21:56:57.152Z,8.47
2023-03-25T21:59:23.813Z,8.59
2023-03-25T22:01:52.762Z,8.58
2023-03-25T22:04:19.516Z,8.61
2023-03-25T22:06:46.432Z,8.72
2023-03-25T22:09:13.118Z,8.76
2023-03-25T22:11:39.949Z,8.69
2023-03-25T22:14:08.047Z,8.78
2023-03-25T22:16:34.806Z,8.77
2023-03-25T22:19:02.010Z,8.91
2023-03-25T22:21:33.165Z,8.89
2023-03-25T22:24:01.695Z,8.87
2023-03-25T22:26:30.619Z,8.85
2023-03-25T22:29:03.090Z,8.74
2023-03-25T22:31:32.418Z,8.73
2023-03-25T22:34:03.941Z,8.72
2023-03-25T22:36:33.109Z,8.80
2023-03-25T22:39:00.612Z,8.84
2023-03-25T22:41:27.831Z,8.86
2023-03-25T22:43:55.889Z,8.83
2023-03-25T22:46:23.317Z,8.84
2023-03-25T22:48:50.385Z,8.85
2023-03-25T22:51:19.314Z,8.93
2023-03-25T22:53:46.636Z,8.93
2023-03-25T22:56:13.380Z,8.86
2023-03-25T22:58:40.848Z,8.83
2023-03-25T23:01:23.635Z,8.83
2023-03-25T23:03:51.639Z,8.78
2023-03-25T23:06:19.108Z,8.86
2023-03-25T23:08:46.172Z,8.83
2023-03-25T23:11:26.003Z,8.72
2023-03-25T23:14:02.283Z,8.68
2023-03-25T23:16:30.901Z,8.67
2023-03-25T23:18:58.203Z,8.67
2023-03-25T23:21:27.625Z,8.59
2023-03-25T23:23:56.919Z,8.60
2023-03-25T23:26:36.577Z,8.48
2023-03-25T23:29:05.972Z,8.45
2023-03-25T23:31:35.598Z,8.36
2023-03-25T23:34:07.212Z,8.35
2023-03-25T23:36:36.411Z,8.32
2023-03-25T23:39:06.822Z,8.30
2023-03-25T23:41:34.095Z,8.29
2023-03-25T23:44:01.163Z,8.25
2023-03-25T23:46:27.827Z,8.10
2023-03-25T23:49:02.325Z,8.10
2023-03-25T23:51:36.796Z,8.30
2023-03-25T23:54:05.828Z,8.32
2023-03-25T23:56:33.381Z,8.49
2023-03-25T23:59:00.947Z,8.55
